createdAt,value
2019-03-01T00:01:25.212Z,8.50
2019-03-01T00:04:32.415Z,8.50
2019-03-01T00:07:37.831Z,8.50
2019-03-01T00:10:19.730Z,8.40
2019-03-01T00:13:12.989Z,8.40
2019-03-01T00:16:04.474Z,8.40
2019-03-01T00:19:15.638Z,8.40
2019-03-01T00:22:15.434Z,8.40
2019-03-01T00:25:14.941Z,8.50
2019-03-01T00:28:20.487Z,8.50
2019-03-01T00:31:36.142Z,8.50
2019-03-01T00:34:28.229Z,8.50
2019-03-01T00:37:40.545Z,8.50
2019-03-01T00:40:58.033Z,8.40
2019-03-01T00:44:07.784Z,8.40
2019-03-01T00:46:35.526Z,8.40
2019-03-01T00:49:03.393Z,8.30
2019-03-01T00:51:31.293Z,8.30
2019-03-01T00:54:01.698Z,8.30
2019-03-01T00:56:29.481Z,8.20
2019-03-01T00:58:57.605Z,8.20
2019-03-01T01:01:25.321Z,8.10
2019-03-01T01:03:53.142Z,8.10
2019-03-01T01:06:21.169Z,7.90
2019-03-01T01:08:49.161Z,7.80
2019-03-01T01:11:16.889Z,7.70
2019-03-01T01:13:44.733Z,7.60
2019-03-01T01:16:12.758Z,7.50
2019-03-01T01:18:40.661Z,7.40
2019-03-01T01:21:08.507Z,7.40
2019-03-01T01:23:36.243Z,7.50
2019-03-01T01:26:04.058Z,7.50
2019-03-01T01:28:32.178Z,7.50
2019-03-01T01:31:00.404Z,7.50
2019-03-01T01:33:28.217Z,7.50
2019-03-01T01:35:56.381Z,7.40
2019-03-01T01:38:24.213Z,7.40
2019-03-01T01:40:51.934Z,7.30
2019-03-01T01:43:19.900Z,7.20
2019-03-01T01:45:47.834Z,7.30
2019-03-01T01:48:15.561Z,7.30
2019-03-01T01:50:43.838Z,7.40
2019-03-01T01:53:11.761Z,7.50
2019-03-01T01:55:39.461Z,7.60
2019-03-01T01:58:07.431Z,7.60
2019-03-01T02:00:35.137Z,7.70
2019-03-01T02:03:02.833Z,7.60
2019-03-01T02:05:30.845Z,7.60
2019-03-01T02:07:58.812Z,7.60
2019-03-01T02:10:26.660Z,7.70
2019-03-01T02:12:54.696Z,7.80
2019-03-01T02:15:22.439Z,7.70
2019-03-01T02:17:50.306Z,7.70
2019-03-01T02:20:18.305Z,7.60
2019-03-01T02:22:46.178Z,7.50
2019-03-01T02:25:14.494Z,7.40
2019-03-01T02:27:42.345Z,7.30
2019-03-01T02:30:15.254Z,7.30
2019-03-01T02:32:49.592Z,7.40
2019-03-01T02:35:19.512Z,7.60
2019-03-01T02:37:47.415Z,7.80
2019-03-01T02:40:16.067Z,7.90
2019-03-01T02:42:44.155Z,8.10
2019-03-01T02:45:13.766Z,8.20
2019-03-01T02:47:41.630Z,8.20
2019-03-01T02:50:10.013Z,8.20
2019-03-01T02:52:37.718Z,8.30
2019-03-01T02:55:06.296Z,8.30
2019-03-01T02:57:34.032Z,8.30
2019-03-01T03:00:01.740Z,8.40
2019-03-01T03:02:29.751Z,8.50
2019-03-01T03:04:57.462Z,8.40
2019-03-01T03:07:40.913Z,8.50
2019-03-01T03:10:08.860Z,8.50
2019-03-01T03:12:36.742Z,8.50
2019-03-01T03:15:05.133Z,8.60
2019-03-01T03:17:33.116Z,8.60
2019-03-01T03:20:01.066Z,8.60
2019-03-01T03:22:28.913Z,8.60
2019-03-01T03:24:56.615Z,8.70
2019-03-01T03:27:24.533Z,8.70
2019-03-01T03:29:52.503Z,8.80
2019-03-01T03:32:20.430Z,8.80
2019-03-01T03:34:48.507Z,8.90
2019-03-01T03:37:16.309Z,8.80
2019-03-01T03:39:44.351Z,8.80
2019-03-01T03:42:12.049Z,8.70
2019-03-01T03:44:40.026Z,8.60
2019-03-01T03:47:07.872Z,8.50
2019-03-01T03:49:35.582Z,8.50
2019-03-01T03:52:03.332Z,8.50
2019-03-01T03:54:31.308Z,8.60
2019-03-01T03:56:59.275Z,8.70
2019-03-01T03:59:26.997Z,8.70
2019-03-01T04:01:54.690Z,8.70
2019-03-01T04:04:22.578Z,8.80
2019-03-01T04:06:50.400Z,8.90
2019-03-01T04:09:18.122Z,8.90
2019-03-01T04:11:46.019Z,9.00
2019-03-01T04:14:13.980Z,9.00
2019-03-01T04:16:41.938Z,8.90
2019-03-01T04:19:09.799Z,8.80
2019-03-01T04:21:37.657Z,8.70
2019-03-01T04:24:05.747Z,8.60
2019-03-01T04:26:33.621Z,8.50
2019-03-01T04:29:01.395Z,8.40
2019-03-01T04:31:29.273Z,8.30
2019-03-01T04:33:57.132Z,8.10
2019-03-01T04:36:25.134Z,8.00
2019-03-01T04:38:53.119Z,8.00
2019-03-01T04:41:21.570Z,7.90
2019-03-01T04:43:49.324Z,8.00
2019-03-01T04:46:17.219Z,8.10
2019-03-01T04:48:44.941Z,8.10
2019-03-01T04:51:12.668Z,8.10
2019-03-01T04:53:40.391Z,8.00
2019-03-01T04:56:08.493Z,7.90
2019-03-01T04:58:36.494Z,7.80
2019-03-01T05:01:04.739Z,7.80
2019-03-01T05:03:32.457Z,7.80
2019-03-01T05:06:00.184Z,7.90
2019-03-01T05:08:28.057Z,8.00
2019-03-01T05:10:56.351Z,8.10
2019-03-01T05:13:24.269Z,8.20
2019-03-01T05:15:51.969Z,8.10
2019-03-01T05:18:19.856Z,8.10
2019-03-01T05:20:47.786Z,8.10
2019-03-01T05:23:15.710Z,8.10
2019-03-01T05:25:43.422Z,8.00
2019-03-01T05:28:11.386Z,8.00
2019-03-01T05:30:39.529Z,8.10
2019-03-01T05:33:07.417Z,8.10
2019-03-01T05:35:35.389Z,8.10
2019-03-01T05:38:03.263Z,8.20
2019-03-01T05:40:31.217Z,8.30
2019-03-01T05:42:59.230Z,8.50
2019-03-01T05:45:27.027Z,8.60
2019-03-01T05:47:54.864Z,8.60
2019-03-01T05:50:22.573Z,8.60
2019-03-01T05:52:50.497Z,8.60
2019-03-01T05:55:18.216Z,8.60
2019-03-01T05:58:24.249Z,8.60
2019-03-01T06:00:52.473Z,8.70
2019-03-01T06:04:13.885Z,8.60
2019-03-01T06:07:25.429Z,8.60
2019-03-01T06:10:27.809Z,8.60
2019-03-01T06:13:10.941Z,8.60
2019-03-01T06:16:29.291Z,8.60
2019-03-01T06:19:37.477Z,8.60
2019-03-01T06:22:51.112Z,8.70
2019-03-01T06:25:41.934Z,8.70
2019-03-01T06:28:57.627Z,8.70
2019-03-01T06:32:10.397Z,8.70
2019-03-01T06:35:19.251Z,8.70
2019-03-01T06:38:51.514Z,8.70
2019-03-01T06:41:54.845Z,8.70
2019-03-01T06:45:00.351Z,8.50
2019-03-01T06:47:38.978Z,8.50
2019-03-01T06:50:20.290Z,8.50
2019-03-01T06:52:48.014Z,8.50
2019-03-01T06:55:55.421Z,8.50
2019-03-01T06:58:43.560Z,8.60
2019-03-01T07:01:14.802Z,8.80
2019-03-01T07:03:43.815Z,8.90
2019-03-01T07:06:11.556Z,9.10
2019-03-01T07:08:39.267Z,9.20
2019-03-01T07:11:06.989Z,9.30
2019-03-01T07:13:34.739Z,9.40
2019-03-01T07:16:02.494Z,9.50
2019-03-01T07:18:30.217Z,9.60
2019-03-01T07:20:57.934Z,9.60
2019-03-01T07:23:25.685Z,9.70
2019-03-01T07:25:54.902Z,9.80
2019-03-01T07:28:22.745Z,9.80
2019-03-01T07:30:50.552Z,9.90
2019-03-01T07:33:18.325Z,9.90
2019-03-01T07:35:46.407Z,9.80
2019-03-01T07:38:14.263Z,9.80
2019-03-01T07:40:42.063Z,9.90
2019-03-01T07:43:09.777Z,10.00
2019-03-01T07:45:37.487Z,10.00
2019-03-01T07:48:05.234Z,10.10
2019-03-01T07:50:32.941Z,10.10
2019-03-01T07:53:03.790Z,10.20
2019-03-01T07:55:30.197Z,10.20
2019-03-01T07:57:57.909Z,10.30
2019-03-01T08:00:25.634Z,10.30
2019-03-01T08:02:53.369Z,10.30
2019-03-01T08:05:21.104Z,10.20
2019-03-01T08:07:56.188Z,10.20
2019-03-01T08:10:22.416Z,10.30
2019-03-01T08:12:47.912Z,10.40
2019-03-01T08:15:15.613Z,10.60
2019-03-01T08:17:43.353Z,10.70
2019-03-01T08:20:12.762Z,10.70
2019-03-01T08:22:47.895Z,10.90
2019-03-01T08:25:10.569Z,10.80
2019-03-01T08:27:38.278Z,10.90
2019-03-01T08:30:10.335Z,11.00
2019-03-01T08:32:37.101Z,11.30
2019-03-01T08:35:06.114Z,11.60
2019-03-01T08:37:33.923Z,11.90
2019-03-01T08:40:01.634Z,12.10
2019-03-01T08:42:32.725Z,12.30
2019-03-01T08:44:59.355Z,12.20
2019-03-01T08:47:27.221Z,12.20
2019-03-01T08:49:54.917Z,12.30
2019-03-01T08:52:22.622Z,12.40
2019-03-01T08:54:50.346Z,12.10
2019-03-01T08:57:18.065Z,12.10
2019-03-01T08:59:45.801Z,12.30
2019-03-01T09:02:13.514Z,12.50
2019-03-01T09:04:50.501Z,12.70
2019-03-01T09:07:10.774Z,12.90
2019-03-01T09:09:38.501Z,12.80
2019-03-01T09:12:06.210Z,13.00
2019-03-01T09:14:34.030Z,13.00
2019-03-01T09:17:01.818Z,13.00
2019-03-01T09:19:29.543Z,13.00
2019-03-01T09:21:57.273Z,12.90
2019-03-01T09:24:25.781Z,13.00
2019-03-01T09:26:55.162Z,13.10
2019-03-01T09:29:23.926Z,13.30
2019-03-01T09:31:54.287Z,13.60
2019-03-01T09:34:21.381Z,13.80
2019-03-01T09:36:55.615Z,14.00
2019-03-01T09:39:23.570Z,13.90
2019-03-01T09:41:51.306Z,14.00
2019-03-01T09:44:19.089Z,14.20
2019-03-01T09:46:46.813Z,14.40
2019-03-01T09:49:14.544Z,14.50
2019-03-01T09:51:43.708Z,14.70
2019-03-01T09:54:11.817Z,14.80
2019-03-01T09:56:39.575Z,14.80
2019-03-01T09:59:07.277Z,14.80
2019-03-01T10:01:35.013Z,14.60
2019-03-01T10:04:02.908Z,14.50
2019-03-01T10:06:37.905Z,14.00
2019-03-01T10:09:00.172Z,14.20
2019-03-01T10:11:27.904Z,14.30
2019-03-01T10:13:55.624Z,14.50
2019-03-01T10:16:23.359Z,14.80
2019-03-01T10:18:51.079Z,14.90
2019-03-01T10:21:18.811Z,15.00
2019-03-01T10:23:46.541Z,15.20
2019-03-01T10:26:14.327Z,15.40
2019-03-01T10:28:42.269Z,15.80
2019-03-01T10:31:10.006Z,16.20
2019-03-01T10:33:38.064Z,16.20
2019-03-01T10:36:05.986Z,16.30
2019-03-01T10:38:33.717Z,16.10
2019-03-01T10:41:01.477Z,15.70
2019-03-01T10:43:29.201Z,16.00
2019-03-01T10:45:57.043Z,16.30
2019-03-01T10:48:24.788Z,16.20
2019-03-01T10:50:52.492Z,15.80
2019-03-01T10:53:20.234Z,15.60
2019-03-01T10:55:47.946Z,15.40
2019-03-01T10:58:15.689Z,15.30
2019-03-01T11:00:43.453Z,15.00
2019-03-01T11:03:11.194Z,14.80
2019-03-01T11:05:38.917Z,14.60
2019-03-01T11:08:06.713Z,14.50
2019-03-01T11:10:35.330Z,14.60
2019-03-01T11:13:03.074Z,14.70
2019-03-01T11:15:30.802Z,14.90
2019-03-01T11:17:58.537Z,15.30
2019-03-01T11:20:26.351Z,15.80
2019-03-01T11:22:54.069Z,16.20
2019-03-01T11:25:22.089Z,16.50
2019-03-01T11:27:50.075Z,16.50
2019-03-01T11:30:19.994Z,16.50
2019-03-01T11:32:47.740Z,16.30
2019-03-01T11:35:15.582Z,16.20
2019-03-01T11:37:43.322Z,16.20
2019-03-01T11:40:22.030Z,16.10
2019-03-01T11:42:49.773Z,16.20
2019-03-01T11:45:17.589Z,16.30
2019-03-01T11:47:45.362Z,16.50
2019-03-01T11:50:18.053Z,16.40
2019-03-01T11:53:06.233Z,16.30
2019-03-01T11:55:34.075Z,16.20
2019-03-01T11:58:01.777Z,16.20
2019-03-01T12:00:29.485Z,16.30
2019-03-01T12:04:12.319Z,16.50
2019-03-01T12:06:40.064Z,16.40
2019-03-01T12:09:07.793Z,16.20
2019-03-01T12:11:35.665Z,16.00
2019-03-01T12:14:03.399Z,15.90
2019-03-01T12:16:31.114Z,15.90
2019-03-01T12:18:58.834Z,16.00
2019-03-01T12:21:26.731Z,16.10
2019-03-01T12:23:54.457Z,16.30
2019-03-01T12:26:22.189Z,16.40
2019-03-01T12:28:50.202Z,16.40
2019-03-01T12:31:17.893Z,16.30
2019-03-01T12:33:45.661Z,16.30
2019-03-01T12:36:13.384Z,16.30
2019-03-01T12:38:41.207Z,16.30
2019-03-01T12:41:08.996Z,16.30
2019-03-01T12:43:36.841Z,16.40
2019-03-01T12:46:04.649Z,16.50
2019-03-01T12:48:32.489Z,16.60
2019-03-01T12:51:00.205Z,16.80
2019-03-01T12:53:28.062Z,16.80
2019-03-01T12:55:55.770Z,16.50
2019-03-01T12:58:23.493Z,16.40
2019-03-01T13:00:51.207Z,16.20
2019-03-01T13:03:18.949Z,16.00
2019-03-01T13:05:46.657Z,15.80
2019-03-01T13:08:15.780Z,15.60
2019-03-01T13:10:46.104Z,15.40
2019-03-01T13:13:13.991Z,15.30
2019-03-01T13:15:41.854Z,15.30
2019-03-01T13:18:10.251Z,15.20
2019-03-01T13:20:39.241Z,15.20
2019-03-01T13:23:06.947Z,15.20
2019-03-01T13:25:34.689Z,15.30
2019-03-01T13:28:02.641Z,15.40
2019-03-01T13:30:32.471Z,15.40
2019-03-01T13:33:02.571Z,15.70
2019-03-01T13:35:29.806Z,15.90
2019-03-01T13:37:57.724Z,16.10
2019-03-01T13:40:25.586Z,16.20
2019-03-01T13:42:53.302Z,16.20
2019-03-01T13:45:21.464Z,16.10
2019-03-01T13:47:49.516Z,16.00
2019-03-01T13:50:17.578Z,15.80
2019-03-01T13:52:45.677Z,15.80
2019-03-01T13:55:14.833Z,15.60
2019-03-01T13:57:46.064Z,15.60
2019-03-01T14:00:15.083Z,15.40
2019-03-01T14:02:43.034Z,15.40
2019-03-01T14:05:13.326Z,15.40
2019-03-01T14:07:41.333Z,15.40
2019-03-01T14:10:11.347Z,15.20
2019-03-01T14:12:39.072Z,15.10
2019-03-01T14:15:08.932Z,15.10
2019-03-01T14:17:36.668Z,15.20
2019-03-01T14:20:05.502Z,15.30
2019-03-01T14:22:33.353Z,15.30
2019-03-01T14:25:02.560Z,15.60
2019-03-01T14:27:30.834Z,15.80
2019-03-01T14:29:58.741Z,15.90
2019-03-01T14:32:26.482Z,16.00
2019-03-01T14:34:54.201Z,15.60
2019-03-01T14:37:22.141Z,15.60
2019-03-01T14:39:50.334Z,15.30
2019-03-01T14:42:18.109Z,15.10
2019-03-01T14:44:45.809Z,15.10
2019-03-01T14:47:13.617Z,15.20
2019-03-01T14:49:41.557Z,15.10
2019-03-01T14:52:09.382Z,15.10
2019-03-01T14:54:37.081Z,15.10
2019-03-01T14:57:11.861Z,15.10
2019-03-01T15:00:19.202Z,15.10
2019-03-01T15:03:16.149Z,15.10
2019-03-01T15:05:38.730Z,15.10
2019-03-01T15:08:08.234Z,15.20
2019-03-01T15:10:36.185Z,15.30
2019-03-01T15:13:03.915Z,15.30
2019-03-01T15:15:32.442Z,15.30
2019-03-01T15:18:00.159Z,15.20
2019-03-01T15:20:27.877Z,15.30
2019-03-01T15:22:55.594Z,15.10
2019-03-01T15:25:23.292Z,15.10
2019-03-01T15:27:51.017Z,15.10
2019-03-01T15:30:18.958Z,15.10
2019-03-01T15:32:46.946Z,15.20
2019-03-01T15:35:14.656Z,15.30
2019-03-01T15:37:42.375Z,15.30
2019-03-01T15:40:10.149Z,15.40
2019-03-01T15:42:37.885Z,15.40
2019-03-01T15:45:06.333Z,15.30
2019-03-01T15:47:34.113Z,15.40
2019-03-01T15:50:01.856Z,15.40
2019-03-01T15:52:29.577Z,15.40
2019-03-01T15:54:57.666Z,15.40
2019-03-01T15:57:26.065Z,15.30
2019-03-01T15:59:53.830Z,15.30
2019-03-01T16:02:21.578Z,15.10
2019-03-01T16:04:49.382Z,15.00
2019-03-01T16:07:17.083Z,14.90
2019-03-01T16:09:45.041Z,14.90
2019-03-01T16:12:12.741Z,14.80
2019-03-01T16:14:40.508Z,14.80
2019-03-01T16:17:08.220Z,14.90
2019-03-01T16:19:36.071Z,14.90
2019-03-01T16:22:04.481Z,14.70
2019-03-01T16:24:32.239Z,14.70
2019-03-01T16:27:00.121Z,14.80
2019-03-01T16:29:27.844Z,14.70
2019-03-01T16:31:55.862Z,14.70
2019-03-01T16:34:24.012Z,14.60
2019-03-01T16:36:56.425Z,14.60
2019-03-01T16:39:24.763Z,14.50
2019-03-01T16:41:52.769Z,14.50
2019-03-01T16:44:20.467Z,14.50
2019-03-01T16:46:48.289Z,14.60
2019-03-01T16:49:16.057Z,14.60
2019-03-01T16:51:43.890Z,14.80
2019-03-01T16:54:15.376Z,15.00
2019-03-01T16:56:41.453Z,15.00
2019-03-01T16:59:09.165Z,15.00
2019-03-01T17:01:37.097Z,15.00
2019-03-01T17:04:05.105Z,14.80
2019-03-01T17:06:32.834Z,14.80
2019-03-01T17:09:00.537Z,14.80
2019-03-01T17:11:28.286Z,14.80
2019-03-01T17:13:55.993Z,15.00
2019-03-01T17:16:24.585Z,15.10
2019-03-01T17:18:52.365Z,15.10
2019-03-01T17:21:20.100Z,15.30
2019-03-01T17:23:47.806Z,15.10
2019-03-01T17:26:15.716Z,15.10
2019-03-01T17:28:43.419Z,15.00
2019-03-01T17:31:11.154Z,15.00
2019-03-01T17:33:39.093Z,15.00
2019-03-01T17:36:07.006Z,14.90
2019-03-01T17:38:34.713Z,14.60
2019-03-01T17:41:02.449Z,14.40
2019-03-01T17:43:32.722Z,14.20
2019-03-01T17:45:59.926Z,14.00
2019-03-01T17:48:29.534Z,13.80
2019-03-01T17:50:57.226Z,13.60
2019-03-01T17:53:24.959Z,13.50
2019-03-01T17:55:52.656Z,13.40
2019-03-01T17:58:20.406Z,13.30
2019-03-01T18:00:48.105Z,13.20
2019-03-01T18:03:15.935Z,13.20
2019-03-01T18:05:43.665Z,13.20
2019-03-01T18:08:11.600Z,13.10
2019-03-01T18:10:39.465Z,13.10
2019-03-01T18:13:07.208Z,13.10
2019-03-01T18:15:34.925Z,13.00
2019-03-01T18:18:02.981Z,13.00
2019-03-01T18:20:33.882Z,13.00
2019-03-01T18:23:02.347Z,13.00
2019-03-01T18:25:30.065Z,12.90
2019-03-01T18:27:58.233Z,12.90
2019-03-01T18:30:26.109Z,12.80
2019-03-01T18:32:54.218Z,12.70
2019-03-01T18:35:21.921Z,12.70
2019-03-01T18:37:51.385Z,12.60
2019-03-01T18:40:19.459Z,12.50
2019-03-01T18:42:47.181Z,12.50
2019-03-01T18:45:15.727Z,12.50
2019-03-01T18:47:43.596Z,12.50
2019-03-01T18:50:14.142Z,12.40
2019-03-01T18:52:41.885Z,12.30
2019-03-01T18:55:09.799Z,12.20
2019-03-01T18:57:38.649Z,12.10
2019-03-01T19:00:23.715Z,12.00
2019-03-01T19:02:51.475Z,12.00
2019-03-01T19:05:19.243Z,11.90
2019-03-01T19:07:47.082Z,11.80
2019-03-01T19:10:15.005Z,11.70
2019-03-01T19:12:44.892Z,11.60
2019-03-01T19:15:15.609Z,11.60
2019-03-01T19:17:42.233Z,11.50
2019-03-01T19:20:12.249Z,11.50
2019-03-01T19:22:40.109Z,11.40
2019-03-01T19:25:08.726Z,11.40
2019-03-01T19:27:36.451Z,11.40
2019-03-01T19:30:05.044Z,11.40
2019-03-01T19:32:32.859Z,11.30
2019-03-01T19:35:00.593Z,11.30
2019-03-01T19:37:28.521Z,11.20
2019-03-01T19:39:56.336Z,11.10
2019-03-01T19:42:24.002Z,11.10
2019-03-01T19:44:51.739Z,11.00
2019-03-01T19:47:19.501Z,11.00
2019-03-01T19:49:48.577Z,10.90
2019-03-01T19:52:16.753Z,10.90
2019-03-01T19:54:44.486Z,10.90
2019-03-01T19:57:12.252Z,10.90
2019-03-01T19:59:40.092Z,10.90
2019-03-01T20:02:07.817Z,10.90
2019-03-01T20:04:35.541Z,10.90
2019-03-01T20:07:03.243Z,11.00
2019-03-01T20:09:30.969Z,11.00
2019-03-01T20:11:59.262Z,11.10
2019-03-01T20:14:30.329Z,11.20
2019-03-01T20:16:58.188Z,11.20
2019-03-01T20:19:26.708Z,11.20
2019-03-01T20:21:54.474Z,11.20
2019-03-01T20:24:22.191Z,11.20
2019-03-01T20:26:49.903Z,11.30
2019-03-01T20:29:17.627Z,11.30
2019-03-01T20:31:45.462Z,11.30
2019-03-01T20:34:13.371Z,11.30
2019-03-01T20:36:41.826Z,11.30
2019-03-01T20:39:11.769Z,11.30
2019-03-01T20:41:40.135Z,11.40
2019-03-01T20:44:08.784Z,11.30
2019-03-01T20:46:36.503Z,11.30
2019-03-01T20:49:04.742Z,11.40
2019-03-01T20:51:32.633Z,11.40
2019-03-01T20:54:01.068Z,11.40
2019-03-01T20:56:28.910Z,11.40
2019-03-01T20:58:56.629Z,11.40
2019-03-01T21:01:24.373Z,11.40
2019-03-01T21:03:52.098Z,11.40
2019-03-01T21:06:27.957Z,11.40
2019-03-01T21:08:55.701Z,11.50
2019-03-01T21:11:25.538Z,11.40
2019-03-01T21:13:53.060Z,11.40
2019-03-01T21:16:20.774Z,11.50
2019-03-01T21:18:48.633Z,11.50
2019-03-01T21:21:16.353Z,11.40
2019-03-01T21:23:44.072Z,11.40
2019-03-01T21:26:12.099Z,11.50
2019-03-01T21:28:41.912Z,11.50
2019-03-01T21:31:09.653Z,11.50
2019-03-01T21:33:37.489Z,11.50
2019-03-01T21:36:05.381Z,11.50
2019-03-01T21:38:33.323Z,11.50
2019-03-01T21:41:01.045Z,11.50
2019-03-01T21:43:30.569Z,11.50
2019-03-01T21:45:58.995Z,11.40
2019-03-01T21:48:27.697Z,11.50
2019-03-01T21:50:55.569Z,11.50
2019-03-01T21:53:25.310Z,11.50
2019-03-01T21:55:52.828Z,11.60
2019-03-01T21:58:20.553Z,11.60
2019-03-01T22:00:48.261Z,11.60
2019-03-01T22:03:15.993Z,11.60
2019-03-01T22:05:45.265Z,11.60
2019-03-01T22:08:13.825Z,11.60
2019-03-01T22:10:41.801Z,11.60
2019-03-01T22:13:09.548Z,11.60
2019-03-01T22:15:37.253Z,11.60
2019-03-01T22:18:04.982Z,11.50
2019-03-01T22:20:32.703Z,11.50
2019-03-01T22:23:00.421Z,11.50
2019-03-01T22:25:28.285Z,11.50
2019-03-01T22:27:57.660Z,11.50
2019-03-01T22:30:27.343Z,11.50
2019-03-01T22:32:55.429Z,11.50
2019-03-01T22:35:23.133Z,11.40
2019-03-01T22:37:50.857Z,11.40
2019-03-01T22:40:18.573Z,11.30
2019-03-01T22:42:49.685Z,11.20
2019-03-01T22:45:16.164Z,11.20
2019-03-01T22:47:43.890Z,11.20
2019-03-01T22:50:12.576Z,11.20
2019-03-01T22:52:40.359Z,11.20
2019-03-01T22:55:09.072Z,11.20
2019-03-01T22:57:36.913Z,11.20
2019-03-01T23:00:07.371Z,11.20
2019-03-01T23:02:35.117Z,11.10
2019-03-01T23:05:03.868Z,11.20
2019-03-01T23:07:32.568Z,11.10
2019-03-01T23:10:00.496Z,11.10
2019-03-01T23:12:28.201Z,11.10
2019-03-01T23:14:55.925Z,11.00
2019-03-01T23:17:23.626Z,11.00
2019-03-01T23:19:51.652Z,11.00
2019-03-01T23:22:20.373Z,11.10
2019-03-01T23:24:49.433Z,11.10
2019-03-01T23:27:17.252Z,11.10
2019-03-01T23:29:44.969Z,11.20
2019-03-01T23:32:15.525Z,11.20
2019-03-01T23:34:42.544Z,11.20
2019-03-01T23:37:10.417Z,11.20
2019-03-01T23:39:38.148Z,11.20
2019-03-01T23:42:05.864Z,11.20
2019-03-01T23:44:33.506Z,11.20
2019-03-01T23:47:02.791Z,11.20
2019-03-01T23:49:30.749Z,11.20
2019-03-01T23:51:58.485Z,11.20
2019-03-01T23:54:26.209Z,11.20
2019-03-01T23:56:53.921Z,11.20
2019-03-01T23:59:23.833Z,11.10
